Terminal Aerodrome Forecast
Issued by NWS Corpus Christi, TX

Home | Current Version | Previous Version | Text Only | Print | Product List | Glossary On
Versions: 1 2 3 4 5 6 7 8 9 10 11 12 13 14
000
FTUS44 KCRP 032323
TAFVCT
TAF
KVCT 032323Z 0400/0424 17013KT P6SM BKN150
     FM040200 16005KT P6SM FEW025
     FM041000 00000KT 4SM BR SCT015
      TEMPO 0411/0413 2SM BR
     FM041400 19008KT P6SM SCT025
     FM042000 15013G19KT P6SM SCT040=

USA.gov is the U.S. government's official web portal to all federal, state and local government web resources and services.